Inverness, United Kingdom

11:38 AM GMT on March 04, 2015 (GMT +0000)
Inverness | Change Station
CLOSE
Current Station
Airport
Location: Inverness,
Elevation: 30 ft
Nearby Weather Stations

Elev 30 ft 57.54 °N, 4.05 °W | Updated 18 minutes ago

Scattered Clouds
Scattered Clouds
41 °F
Feels Like 34 °F
N
13
Wind Variable Wind from WSW

Today
High -- | Low -- °F
--% Chance of Precip.
Yesterday
High -- | Low -- °F
Precip. -- in
7:03 AM 5:53 PM
Waxing Gibbous, 99% visible
Pressure 30.24 in
Visibility 6.2 miles
Clouds Few 3000 ft
Scattered Clouds 4800 ft
Windchill 34 °F
Dew Point 36 °F
Humidity 81%
Rainfall 0.00 in
Snow Depth Not available.
UV 2 out of 12
Pollen Not available.
Air Quality Not available.
Flu Activity Not available.
METAR EGPE 041120Z 24011KT 9999 FEW030CB SCT048 05/02 Q1024

More Conditions Fewer Conditions

Pressure 30.24 in
Visibility 6.2 miles
Clouds Few 3000 ft
Scattered Clouds 4800 ft
Windchill 34 °F
Dew Point 36 °F
Humidity 81%
Rainfall 0.00 in
Snow Depth Not available.
UV 2 out of 12
Pollen Not available.
Air Quality Not available.
Flu Activity Not available.
METAR EGPE 041120Z 24011KT 9999 FEW030CB SCT048 05/02 Q1024

More Conditions Fewer Conditions

10-Day Weather Forecast

Almanac

Astronomy

Mar. 04, 2015 Rise Set
Actual Time
Civil Twilight
Nautical Twilight
Astronomical Twilight
Moon
Length of Visible Light
Length of Day
Tomorrow will be .
, % of the Moon is Illuminated

Today's Extremes

Country Highs Country Lows

Community

WunderPhotos

Upload Photos

1,802,435 photos uploaded!

WunderBlogs® & News

Nearby

Air Quality

  Air Quality AQ Index Pollutant
Not available.

Snow Depth

Station Depth Elevation

Earthquake Activity

City Distance Mag. Time & Date
Minimum magnitude displayed is 2.5.

Coastal Water Temperatures

Place Temperature

Nearby Weather Stations